Latest Weather Observations for Wyndham Airport

IDD60801

Issued at 5:35 pm CST Saturday 29 November 2014 (issued every 30 minutes, with the page automatically refreshed every 10 minutes)

About weather observations | Map of weather stations | Latest weather observations for NT | Other Formats
Station Details ID: 001006 Name: WYNDHAM AERO Lat: -15.51 Lon: 128.15 Height: 3.8 m
Data from the previous 72 hours. | See also: Recent months for locations in Northern Territory
Date/Time
CST
Temp
°C
App
Temp
°C
Dew
Point
Rel
Hum
%
Delta-T
°C
Wind Press
QNH
hPa
Press
MSL
hPa
Rain
since 9 am
mm
Dir
 
Spd
km/h
Gust
km/h
Spd
kts
Gust
kts
29/05:30pm 36.7 34.0 19.2 36 11.6 N 32 41 17 22 1002.2 1002.2 0.0
29/05:00pm 36.8 34.1 19.3 36 11.7 N 32 43 17 23 1002.5 1002.5 0.0
29/04:30pm 38.0 35.7 19.4 33 12.4 N 30 39 16 21 1002.5 1002.5 0.0
29/04:00pm 38.6 36.2 19.9 33 12.6 N 32 39 17 21 1002.5 1002.5 0.0
29/03:30pm 39.5 37.4 19.7 31 13.3 NNW 30 41 16 22 1002.6 1002.6 0.0
29/03:00pm 39.8 38.7 19.5 31 13.7 NW 24 35 13 19 1002.9 1002.9 0.0
29/02:30pm 40.2 40.5 20.3 31 13.5 NW 19 32 10 17 1003.4 1003.4 0.0
29/02:00pm 39.3 39.9 19.5 31 13.3 NW 15 26 8 14 1004.0 1004.0 0.0
29/01:30pm 38.3 38.9 18.7 31 13.0 NW 13 20 7 11 1004.6 1004.6 0.0
29/01:00pm 38.3 38.4 19.2 32 12.7 N 17 28 9 15 1005.2 1005.2 0.0
29/12:30pm 37.3 37.3 19.7 35 11.8 N 19 26 10 14 1005.8 1005.8 0.0
29/12:00pm 36.6 37.8 20.0 38 11.1 N 13 20 7 11 1006.4 1006.4 0.0
29/11:30am 36.3 37.8 19.7 37 11.1 NNW 11 17 6 9 1006.9 1006.9 0.0
29/11:00am 34.9 37.7 20.8 43 9.5 NW 7 13 4 7 1007.4 1007.4 0.0
29/10:30am 33.8 36.9 22.2 50 7.9 WSW 9 13 5 7 1007.7 1007.7 0.0
29/10:00am 33.4 37.1 22.5 52 7.5 WNW 7 13 4 7 1008.0 1008.0 0.0
29/09:30am 31.9 35.1 22.3 56 6.6 W 9 17 5 9 1008.0 1008.0 0.0
29/09:00am 31.4 34.6 22.4 59 6.1 WNW 9 13 5 7 1008.5 1008.5 0.0
29/08:30am 31.3 34.6 22.6 60 6.0 NW 9 11 5 6 1008.4 1008.4 0.0
29/08:00am 30.2 34.0 23.4 67 4.7 WNW 9 11 5 6 1008.1 1008.1 0.0
29/07:30am 29.5 33.2 23.2 69 4.3 WNW 9 11 5 6 1007.8 1007.8 0.0
29/07:00am 29.0 33.1 23.2 71 4.0 WNW 7 9 4 5 1007.7 1007.7 0.0
29/06:30am 28.8 32.0 23.0 71 4.0 WNW 11 13 6 7 1007.4 1007.4 0.0
29/06:00am 29.1 32.3 23.1 70 4.1 WNW 11 13 6 7 1007.0 1007.0 0.0
29/05:30am 28.5 32.1 23.0 72 3.8 NW 9 11 5 6 1006.9 1006.9 0.0
29/05:00am 29.1 31.7 23.3 71 4.0 W 15 20 8 11 1006.6 1006.6 0.0
29/04:30am 28.1 32.9 24.1 79 2.8 WNW 6 11 3 6 1006.6 1006.6 0.0
29/04:00am 27.8 33.8 24.2 81 2.5 CALM 0 0 0 0 1006.4 1006.4 0.0
29/03:30am 28.0 32.8 24.2 80 2.6 E 6 7 3 4 1006.3 1006.3 0.0
29/03:00am 28.1 32.4 24.3 80 2.6 ESE 9 13 5 7 1006.2 1006.2 0.0
29/02:30am 28.3 32.0 23.9 77 3.0 E 11 13 6 7 1006.3 1006.3 0.0
29/02:00am 28.9 34.2 23.1 71 4.0 CALM 0 0 0 0 1006.5 1006.5 0.0
29/01:30am 29.7 34.2 22.9 67 4.7 SW 4 9 2 5 1006.7 1006.7 0.0
29/01:00am 29.7 34.8 22.7 66 4.8 CALM 0 0 0 0 1007.0 1007.0 0.0
29/12:30am 30.0 34.8 22.2 63 5.3 CALM 0 0 0 0 1007.2 1007.2 0.0
29/12:00am 30.1 34.8 22.0 62 5.5 CALM 0 0 0 0 1007.5 1007.5 0.0
 
Date/Time
CST
Temp
°C
App
Temp
°C
Dew
Point
Rel
Hum
%
Delta-T
°C
Wind Press
QNH
hPa
Press
MSL
hPa
Rain
since 9 am
mm
Dir
 
Spd
km/h
Gust
km/h
Spd
kts
Gust
kts
28/11:30pm 30.6 34.6 21.4 58 6.2 NNE 2 6 1 3 1007.8 1007.8 0.0
28/11:00pm 30.7 33.1 20.9 56 6.5 NNE 9 13 5 7 1008.1 1008.1 0.0
28/10:30pm 30.5 33.5 22.7 63 5.3 NNW 11 17 6 9 1008.0 1008.0 0.0
28/10:00pm 30.7 34.3 22.3 61 5.7 NE 7 15 4 8 1007.9 1007.9 0.0
28/09:30pm 31.1 32.3 22.1 58 6.1 N 19 26 10 14 1007.7 1007.7 0.0
28/09:00pm 31.1 32.3 22.1 58 6.1 N 19 26 10 14 1007.3 1007.3 0.0
28/08:30pm 31.6 32.1 22.6 59 6.2 N 24 30 13 16 1007.0 1007.0 0.0
28/08:00pm 32.6 34.8 21.8 53 7.3 N 13 22 7 12 1006.6 1006.6 0.0
28/07:30pm 33.1 34.7 22.2 52 7.5 N 17 24 9 13 1005.9 1005.9 0.0
28/07:00pm 33.9 36.3 22.3 50 7.9 N 13 19 7 10 1005.6 1005.6 0.0
28/06:30pm 34.1 36.3 21.9 49 8.3 N 13 17 7 9 1005.5 1005.5 0.0
28/06:00pm 35.0 36.9 22.0 46 8.9 N 15 20 8 11 1005.0 1005.0 0.0
28/05:30pm 34.6 36.6 22.3 48 8.5 N 15 20 8 11 1005.2 1005.2 0.0
28/05:00pm 34.7 36.3 22.1 48 8.6 N 17 22 9 12 1005.0 1005.0 0.0
28/04:30pm 35.5 35.5 21.7 44 9.4 N 24 30 13 16 1005.2 1005.2 0.0
28/04:00pm 35.6 35.5 22.2 46 9.2 N 26 35 14 19 1005.3 1005.3 0.0
28/03:30pm 34.7 33.4 22.4 48 8.5 N 33 43 18 23 1005.6 1005.6 0.0
28/03:00pm 38.3 38.2 22.3 39 11.1 NNW 26 35 14 19 1005.9 1005.9 0.0
28/02:30pm 37.8 38.0 20.6 36 11.7 NNW 20 26 11 14 1006.3 1006.3 0.0
28/02:00pm 36.1 36.5 18.2 34 11.7 NNE 13 20 7 11 1006.8 1006.8 0.0
28/01:30pm 37.1 37.9 18.1 32 12.4 SSE 11 17 6 9 1007.2 1007.2 0.0
28/01:00pm 36.7 37.6 18.3 34 12.1 ENE 11 20 6 11 1007.7 1007.7 0.0
28/12:30pm 36.5 37.3 19.0 35 11.6 E 13 30 7 16 1008.3 1008.3 0.0
28/12:00pm 35.8 35.2 18.4 35 11.4 E 19 28 10 15 1008.7 1008.7 0.0
28/11:30am 34.7 37.0 20.6 43 9.5 ESE 9 22 5 12 1009.1 1009.1 0.0
28/11:00am 33.7 34.8 19.7 43 9.3 E 13 20 7 11 1009.5 1009.5 0.0
28/10:30am 34.4 35.6 20.7 44 9.2 E 15 22 8 12 1009.8 1009.8 1.2
28/10:00am 32.9 34.0 20.4 47 8.3 ESE 15 22 8 12 1010.1 1010.1 1.2
28/09:30am 31.5 32.4 20.1 50 7.5 ESE 15 24 8 13 1010.2 1010.2 1.2
28/09:00am 31.5 32.4 20.8 53 7.1 ESE 17 22 9 12 1010.0 1010.0 1.2
28/08:30am 31.0 33.0 21.5 57 6.4 SE 13 19 7 10 1010.0 1010.0 1.2
28/08:00am 30.3 32.0 21.7 60 5.8 SE 15 19 8 10 1009.7 1009.7 1.2
28/07:30am 29.4 32.9 21.9 64 5.1 SSE 6 9 3 5 1009.7 1009.7 1.2
28/07:00am 27.6 33.0 23.2 77 3.0 CALM 0 0 0 0 1009.1 1009.1 1.2
28/06:30am 26.6 31.3 22.0 76 3.1 CALM 0 0 0 0 1008.7 1008.7 1.2
28/06:00am 26.9 31.4 21.6 72 3.5 CALM 0 0 0 0 1008.2 1008.2 1.2
28/05:30am 27.0 30.2 21.7 73 3.5 E 7 9 4 5 1007.9 1007.9 1.2
28/05:00am 27.6 30.7 21.4 69 4.1 SE 7 11 4 6 1007.6 1007.6 1.2
28/04:30am 27.9 30.8 21.0 66 4.6 SE 7 11 4 6 1007.4 1007.4 1.2
28/04:00am 28.1 30.2 20.9 65 4.8 SE 11 15 6 8 1007.4 1007.4 1.2
28/03:30am 29.0 30.8 21.2 62 5.2 SE 13 20 7 11 1007.3 1007.3 1.2
28/03:00am 29.3 30.4 22.0 64 4.9 S 19 26 10 14 1007.6 1007.6 1.2
28/02:30am 28.3 35.2 25.7 86 1.8 CALM 0 0 0 0 1007.8 1007.8 1.2
28/02:00am 28.2 34.9 25.4 85 2.0 CALM 0 0 0 0 1008.2 1008.2 1.2
28/01:30am 28.2 34.8 25.2 84 2.1 CALM 0 0 0 0 1008.5 1008.5 1.2
28/01:00am 28.6 35.3 25.4 83 2.3 CALM 0 4 0 2 1008.7 1008.7 1.2
28/12:30am 28.5 34.5 25.5 84 2.1 SW 4 7 2 4 1009.2 1009.2 1.2
28/12:00am 28.3 34.6 25.3 84 2.1 SW 2 6 1 3 1009.5 1009.5 1.2
 
Date/Time
CST
Temp
°C
App
Temp
°C
Dew
Point
Rel
Hum
%
Delta-T
°C
Wind Press
QNH
hPa
Press
MSL
hPa
Rain
since 9 am
mm
Dir
 
Spd
km/h
Gust
km/h
Spd
kts
Gust
kts
27/11:30pm 28.4 33.7 25.2 83 2.2 SSW 7 9 4 5 1009.7 1009.7 1.2
27/11:00pm 28.6 33.6 25.4 83 2.3 SSW 9 13 5 7 1009.9 1009.9 1.2
27/10:30pm 28.9 34.1 25.1 80 2.7 W 7 9 4 5 1009.5 1009.5 1.2
27/10:00pm 29.0 34.4 25.2 80 2.7 NNW 6 7 3 4 1009.1 1009.1 1.2
27/09:30pm 29.1 33.9 25.1 79 2.8 NNW 9 11 5 6 1008.7 1008.7 1.2
27/09:00pm 29.3 33.5 24.8 77 3.1 NNW 11 13 6 7 1008.4 1008.4 1.2
27/08:30pm 29.9 34.6 25.0 75 3.4 NNW 9 13 5 7 1008.6 1008.6 1.2
27/08:00pm 30.5 34.4 24.2 69 4.4 NNW 11 15 6 8 1007.8 1007.8 1.2
27/07:30pm 31.1 34.3 22.4 60 5.9 N 9 13 5 7 1007.1 1007.1 1.2
27/07:00pm 31.9 33.8 22.0 55 6.7 NNE 15 19 8 10 1006.6 1006.6 1.2
27/06:30pm 32.0 34.0 23.0 59 6.2 NW 17 20 9 11 1006.3 1006.3 1.2
27/06:00pm 33.5 35.8 23.5 55 6.9 NW 17 22 9 12 1006.2 1006.2 1.2
27/05:30pm 34.3 37.3 23.3 52 7.7 N 13 19 7 10 1006.5 1006.5 1.2
27/05:00pm 34.1 37.2 22.8 51 7.8 WNW 11 15 6 8 1006.5 1006.5 1.2
27/04:30pm 33.6 36.6 22.7 53 7.5 N 11 17 6 9 1006.2 1006.2 1.2
27/04:00pm 33.7 37.1 24.0 57 6.8 WNW 13 19 7 10 1006.4 1006.4 1.2
27/03:30pm 32.5 36.7 23.4 58 6.3 NW 7 11 4 6 1006.8 1006.8 1.2
27/03:00pm 31.9 36.0 22.3 56 6.5 ENE 4 13 2 7 1007.1 1007.1 1.2
27/02:30pm 32.4 34.8 24.2 62 5.7 NNE 19 24 10 13 1007.5 1007.5 1.2
27/02:00pm 30.6 33.6 23.3 65 5.0 WNW 13 19 7 10 1008.0 1008.0 1.2
27/01:30pm 30.6 33.9 23.8 67 4.7 NNE 13 17 7 9 1008.5 1008.5 1.2
27/01:00pm 29.8 33.2 24.0 71 4.0 NNW 13 20 7 11 1009.3 1009.3 1.2
27/12:30pm 27.7 29.8 24.1 81 2.5 N 20 32 11 17 1009.6 1009.6 1.2
27/12:00pm 26.0 25.3 24.2 90 1.2 NNE 35 46 19 25 1009.8 1009.8 1.0
27/11:34am 28.3 25.4 21.6 67 4.5 NNE 39 50 21 27 1009.8 1009.8 0.4
27/11:30am 32.3 35.7 22.7 57 6.6 NE 9 17 5 9 1009.4 1009.4 0.4
27/11:00am 32.8 37.5 24.0 60 6.1 SW 6 11 3 6 1009.6 1009.6 0.0
27/10:30am 32.4 36.7 24.2 62 5.7 WSW 9 15 5 8 1009.7 1009.7 0.4
27/10:00am 32.0 36.9 24.6 65 5.2 SSW 7 11 4 6 1009.9 1009.9 0.4
27/09:30am 30.7 34.7 24.4 69 4.4 SE 11 15 6 8 1010.0 1010.0 0.4
27/09:00am 29.5 32.6 24.1 72 3.7 ESE 15 19 8 10 1009.8 1009.8 0.4
27/08:30am 29.0 32.9 24.3 76 3.3 ESE 11 13 6 7 1009.5 1009.5 0.4
27/08:00am 27.4 32.4 24.8 86 1.8 ESE 7 11 4 6 1009.3 1009.3 0.4
27/07:30am 26.9 31.9 24.5 87 1.7 E 6 7 3 4 1008.9 1008.9 0.4
27/07:00am 26.6 31.4 24.4 88 1.5 E 7 7 4 4 1008.6 1008.6 0.4
27/06:30am 25.8 29.8 23.8 89 1.4 SE 9 9 5 5 1008.1 1008.1 0.4
27/06:00am 26.0 30.5 24.0 89 1.4 E 7 9 4 5 1007.7 1007.7 0.4
27/05:30am 26.1 29.1 24.0 88 1.4 ESE 15 15 8 8 1007.4 1007.4 0.4
27/05:00am 26.5 29.3 24.3 88 1.5 ESE 17 19 9 10 1007.2 1007.2 0.4
27/04:30am 26.5 32.6 24.5 89 1.4 CALM 0 0 0 0 1006.8 1006.8 0.4
27/04:00am 26.8 33.3 25.0 90 1.3 CALM 0 0 0 0 1006.7 1006.7 0.4
27/03:30am 27.1 33.4 24.7 87 1.7 CALM 0 0 0 0 1006.7 1006.7 0.4
27/03:00am 27.2 33.2 24.3 84 2.0 CALM 0 0 0 0 1006.7 1006.7 0.4
27/02:30am 27.5 33.8 24.7 85 2.0 CALM 0 0 0 0 1006.9 1006.9 0.4
27/02:00am 27.5 33.8 24.7 85 1.9 CALM 0 0 0 0 1006.8 1006.8 0.4
27/01:30am 27.3 33.6 24.7 86 1.8 CALM 0 0 0 0 1007.0 1007.0 0.4
27/01:00am 26.6 31.5 24.6 89 1.4 NNE 7 9 4 5 1007.5 1007.5 0.4
27/12:30am 26.8 31.6 24.5 87 1.6 N 7 9 4 5 1007.4 1007.4 0.4
27/12:00am 27.1 33.2 24.4 85 1.9 CALM 0 2 0 1 1007.6 1007.6 0.4
 
Date/Time
CST
Temp
°C
App
Temp
°C
Dew
Point
Rel
Hum
%
Delta-T
°C
Wind Press
QNH
hPa
Press
MSL
hPa
Rain
since 9 am
mm
Dir
 
Spd
km/h
Gust
km/h
Spd
kts
Gust
kts
26/11:30pm 26.8 29.9 24.1 85 1.9 E 15 19 8 10 1008.0 1008.0 0.4
26/11:00pm 27.5 30.4 23.9 81 2.5 E 15 19 8 10 1008.4 1008.4 0.4
26/10:30pm 28.4 30.3 23.8 76 3.2 E 20 22 11 12 1008.6 1008.6 0.4
26/10:00pm 30.9 33.9 23.3 64 5.2 N 13 19 7 10 1007.8 1007.8 0.0
26/09:30pm 31.5 32.5 21.7 56 6.6 N 19 24 10 13 1007.2 1007.2 0.0
26/09:00pm 31.6 32.9 21.7 55 6.7 N 17 24 9 13 1006.9 1006.9 0.0
26/08:30pm 31.7 32.7 22.1 56 6.5 N 20 28 11 15 1006.7 1006.7 0.0
26/08:00pm 32.0 33.9 22.7 58 6.4 N 17 20 9 11 1006.4 1006.4 0.0
26/07:30pm 32.2 35.5 23.2 59 6.2 N 11 19 6 10 1005.8 1005.8 0.0

Other Formats:

Comma delimited format used in spreadsheet applications
http://www.bom.gov.au/fwo/IDD60801/IDD60801.95214.axf

JavaScript Object Notation format (JSON) in row-major order
http://www.bom.gov.au/fwo/IDD60801/IDD60801.95214.json